Time;durP1;ratioP1;P1;durP2;ratioP2;P2;SDS_P1;SDS_P2;PMS_P1;PMS_P2;Temp;Humidity;BMP_temperature;BMP_pressure;BME280_temperature;BME280_humidity;BME280_pressure;Samples;Min_cycle;Max_cycle;Signal;HPM_P1;HPM_P2
2021/01/26 00:01:11;;;;;;;2.83;2.52;;;;;;;6.68;64.07;100604.19;1803645;78;21317;-45
2021/01/26 00:03:39;;;;;;;3.92;3.52;;;;;;;6.65;64.23;100611.95;1816384;78;21555;-45
2021/01/26 00:06:08;;;;;;;3.80;3.10;;;;;;;6.63;64.15;100618.86;1809654;78;21135;-45
2021/01/26 00:08:36;;;;;;;3.92;3.40;;;;;;;6.62;64.11;100623.16;1810224;78;21317;-46
2021/01/26 00:11:05;;;;;;;4.90;3.95;;;;;;;6.59;63.98;100626.63;1814770;78;21179;-46
2021/01/26 00:13:34;;;;;;;4.37;3.72;;;;;;;6.56;64.01;100628.38;1819307;78;21147;-45
2021/01/26 00:16:02;;;;;;;4.62;3.58;;;;;;;6.53;64.01;100624.55;1812057;78;21108;-46
2021/01/26 00:18:31;;;;;;;4.22;3.80;;;;;;;6.51;64.10;100627.12;1812356;78;21136;-46
2021/01/26 00:21:01;;;;;;;3.87;3.40;;;;;;;6.48;64.19;100621.98;1811800;78;21155;-45
2021/01/26 00:23:29;;;;;;;3.75;3.30;;;;;;;6.47;64.35;100623.30;1812128;78;21216;-45
2021/01/26 00:25:58;;;;;;;4.60;3.50;;;;;;;6.47;64.19;100622.84;1787105;78;21187;-45
2021/01/26 00:28:26;;;;;;;3.35;3.05;;;;;;;6.48;63.85;100641.38;1689997;84;21140;-45
2021/01/26 00:30:55;;;;;;;3.72;3.33;;;;;;;6.47;63.68;100643.52;1734657;82;21168;-46
2021/01/26 00:33:24;;;;;;;4.28;3.00;;;;;;;6.44;63.45;100644.84;1717243;83;21132;-45
2021/01/26 00:35:53;;;;;;;4.17;3.42;;;;;;;6.41;63.34;100651.31;1725814;82;21333;-45
2021/01/26 00:38:22;;;;;;;4.45;3.50;;;;;;;6.38;63.32;100646.61;1717914;83;21596;-47
2021/01/26 00:40:50;;;;;;;4.30;3.90;;;;;;;6.36;63.36;100645.34;1732671;82;21168;-45
2021/01/26 00:43:19;;;;;;;4.40;3.87;;;;;;;6.37;63.26;100650.91;1734638;82;21156;-45
2021/01/26 00:45:47;;;;;;;6.12;3.75;;;;;;;6.38;63.10;100641.02;1690741;84;21168;-45
2021/01/26 00:48:16;;;;;;;4.08;3.50;;;;;;;6.36;63.01;100629.83;1735126;82;21142;-45
2021/01/26 00:50:46;;;;;;;4.12;3.35;;;;;;;6.34;62.93;100622.52;1716595;82;21143;-45
2021/01/26 00:53:15;;;;;;;5.28;3.98;;;;;;;6.31;63.11;100619.95;1738340;82;21283;-45
2021/01/26 00:55:45;;;;;;;5.85;4.28;;;;;;;6.27;62.96;100629.02;1730804;82;21163;-45
2021/01/26 00:58:15;;;;;;;4.12;3.40;;;;;;;6.23;62.89;100630.77;1722347;82;21188;-45
2021/01/26 01:00:45;;;;;;;3.87;3.22;;;;;;;6.22;62.91;100641.13;1733893;82;21148;-45
2021/01/26 01:03:15;;;;;;;4.85;3.33;;;;;;;6.21;62.61;100640.25;1694664;84;21206;-45
2021/01/26 01:05:43;;;;;;;3.72;3.42;;;;;;;6.20;62.53;100626.89;1733798;82;21334;-46
2021/01/26 01:08:11;;;;;;;3.62;3.33;;;;;;;6.21;62.51;100623.45;1717943;83;21129;-45
2021/01/26 01:10:40;;;;;;;4.08;3.67;;;;;;;6.20;62.54;100629.48;1732216;82;21192;-45
2021/01/26 01:13:10;;;;;;;6.20;4.55;;;;;;;6.20;62.44;100634.64;1696197;84;21191;-45
2021/01/26 01:15:39;;;;;;;6.95;3.80;;;;;;;6.17;62.45;100619.18;1736919;82;21145;-45
2021/01/26 01:18:08;;;;;;;3.37;3.08;;;;;;;6.14;62.55;100612.73;1735306;82;21200;-45
2021/01/26 01:20:37;;;;;;;3.62;3.30;;;;;;;6.12;62.49;100611.88;1716526;83;21603;-45
2021/01/26 01:23:06;;;;;;;6.42;4.03;;;;;;;6.10;62.43;100612.31;1737260;82;21529;-46
2021/01/26 01:25:35;;;;;;;4.67;3.55;;;;;;;6.11;62.41;100612.77;1692538;84;21211;-45
2021/01/26 01:28:04;;;;;;;4.15;3.65;;;;;;;6.10;62.33;100612.31;1733883;82;21148;-45
2021/01/26 01:30:34;;;;;;;3.67;3.37;;;;;;;6.08;62.37;100610.64;1690947;84;21195;-45
2021/01/26 01:33:04;;;;;;;3.60;3.30;;;;;;;6.04;62.39;100618.81;1734232;82;21196;-45
2021/01/26 01:35:32;;;;;;;4.58;3.37;;;;;;;6.03;62.44;100628.73;1723000;83;21175;-46
2021/01/26 01:38:01;;;;;;;3.87;3.20;;;;;;;5.99;62.59;100625.75;1731807;82;21164;-45
2021/01/26 01:40:32;;;;;;;3.55;3.05;;;;;;;5.98;62.59;100622.72;1739010;82;21172;-45
2021/01/26 01:43:01;;;;;;;;;;;;;;;6.00;62.56;100635.20;1648672;86;21798;-45
2021/01/26 01:45:29;;;;;;;3.67;3.25;;;;;;;6.01;62.44;100643.39;1640392;86;20152;-45
2021/01/26 01:48:16;;;;;;;4.20;3.80;;;;;;;5.99;62.35;100635.22;1650993;86;21267;-46
2021/01/26 01:51:02;;;;;;;4.10;3.62;;;;;;;5.97;62.38;100633.94;1650320;86;21301;-45
2021/01/26 01:53:36;;;;;;;4.60;4.15;;;;;;;5.94;62.46;100644.27;1639246;86;21753;-46
2021/01/26 01:56:31;;;;;;;4.70;3.98;;;;;;;5.93;62.46;100651.61;1810103;79;23378;-46
2021/01/26 01:59:05;;;;;;;4.00;3.15;;;;;;;5.85;62.67;100662.41;1708692;82;21198;-45
2021/01/26 02:01:34;;;;;;;4.60;3.83;;;;;;;5.83;62.82;100682.17;1700808;82;21169;-46
2021/01/26 02:04:07;;;;;;;4.22;3.83;;;;;;;5.82;62.95;100677.86;1706088;82;21153;-45
2021/01/26 02:06:35;;;;;;;4.20;3.45;;;;;;;5.80;63.05;100664.09;1706218;82;21190;-45
2021/01/26 02:09:16;;;;;;;5.33;4.25;;;;;;;5.78;63.13;100666.70;1707732;82;21229;-45
2021/01/26 02:11:46;;;;;;;4.22;3.80;;;;;;;5.76;63.33;100681.76;1703092;82;21206;-46
2021/01/26 02:14:15;;;;;;;5.15;3.80;;;;;;;5.74;63.52;100680.48;1709168;82;21645;-46
2021/01/26 02:17:01;;;;;;;4.97;4.08;;;;;;;5.73;63.91;100675.30;1709227;82;21189;-45
2021/01/26 02:20:14;;;;;;;4.85;3.80;;;;;;;5.74;64.17;100674.02;1707356;82;21178;-45
2021/01/26 02:23:23;;;;;;;3.95;3.52;;;;;;;5.79;64.40;100683.02;1704914;82;21230;-46
2021/01/26 02:26:09;;;;;;;4.35;3.95;;;;;;;5.81;64.65;100694.23;1706053;82;21367;-46
2021/01/26 02:29:26;;;;;;;7.08;4.17;;;;;;;5.84;64.82;100691.66;1709081;82;21155;-46
2021/01/26 02:32:11;;;;;;;5.03;4.05;;;;;;;5.85;65.06;100693.39;1704795;82;21169;-46
2021/01/26 02:35:05;;;;;;;5.53;4.12;;;;;;;5.87;65.24;100695.95;1709289;82;21230;-46
2021/01/26 02:38:03;;;;;;;7.10;4.40;;;;;;;5.92;65.41;100693.77;1778623;80;21587;-46
2021/01/26 02:40:54;;;;;;;5.70;4.53;;;;;;;5.94;65.48;100692.05;1690068;84;21204;-46
2021/01/26 02:44:01;;;;;;;6.40;4.80;;;;;;;5.95;65.59;100704.11;1690188;84;21188;-46
2021/01/26 02:47:04;;;;;;;5.03;4.05;;;;;;;5.98;65.75;100727.75;1694083;84;21795;-46
2021/01/26 02:49:50;;;;;;;10.58;4.83;;;;;;;6.01;66.01;100746.70;1690582;84;21152;-45
2021/01/26 02:52:41;;;;;;;6.00;4.37;;;;;;;6.04;66.17;100763.92;1695755;83;21156;-47
2021/01/26 02:55:39;;;;;;;7.15;3.98;;;;;;;6.09;66.22;100775.08;1682570;84;21145;-46
2021/01/26 02:58:37;;;;;;;8.03;4.35;;;;;;;6.10;66.26;100776.35;1684199;85;21801;-46
2021/01/26 03:01:05;;;;;;;5.97;4.67;;;;;;;6.14;66.17;100787.10;1656630;86;21180;-46
2021/01/26 03:03:44;;;;;;;8.50;4.58;;;;;;;6.16;66.21;100785.83;1652675;86;21245;-46
2021/01/26 03:06:22;;;;;;;5.28;4.60;;;;;;;6.20;66.23;100790.95;1819781;77;23911;-45
2021/01/26 03:09:01;;;;;;;5.45;4.30;;;;;;;6.17;66.34;100792.27;1725682;82;21180;-46
2021/01/26 03:11:40;;;;;;;7.03;4.80;;;;;;;6.22;66.30;100790.52;1689330;84;21175;-45
2021/01/26 03:14:14;;;;;;;4.95;3.95;;;;;;;6.26;66.20;100784.93;1713225;83;21181;-45
2021/01/26 03:16:53;;;;;;;6.50;4.75;;;;;;;6.34;66.08;100779.30;1769872;79;23526;-45
2021/01/26 03:19:26;;;;;;;7.70;4.62;;;;;;;6.31;65.99;100771.54;1737580;82;21144;-46
2021/01/26 03:21:58;;;;;;;5.72;3.83;;;;;;;6.33;65.98;100757.75;1740238;82;21585;-46
2021/01/26 03:24:34;;;;;;;7.55;5.05;;;;;;;6.34;66.08;100768.53;1630706;87;21226;-46
2021/01/26 03:27:13;;;;;;;10.85;5.50;;;;;;;6.43;66.01;100764.59;1771491;79;22755;-45
2021/01/26 03:29:44;;;;;;;18.45;7.00;;;;;;;6.43;65.92;100751.67;1685155;84;21199;-45
2021/01/26 03:32:21;;;;;;;20.95;6.47;;;;;;;6.45;65.96;100742.19;1680311;84;21167;-45
2021/01/26 03:34:56;;;;;;;16.23;5.75;;;;;;;6.50;66.21;100736.57;1771513;79;23080;-45
2021/01/26 03:37:24;;;;;;;15.80;6.20;;;;;;;6.47;66.35;100740.45;1733092;82;21585;-45
2021/01/26 03:39:53;;;;;;;12.13;6.12;;;;;;;6.50;66.44;100739.16;1736700;82;21672;-45
2021/01/26 03:42:22;;;;;;;14.03;5.25;;;;;;;6.54;66.46;100731.80;1742081;82;21176;-46
2021/01/26 03:44:50;;;;;;;12.23;6.00;;;;;;;6.59;66.23;100721.45;1734552;82;21145;-46
2021/01/26 03:47:33;;;;;;;11.03;6.40;;;;;;;6.62;66.18;100715.37;1740327;82;21322;-46
2021/01/26 03:50:30;;;;;;;9.18;5.75;;;;;;;6.67;66.11;100717.08;1832023;78;23049;-46
2021/01/26 03:53:18;;;;;;;11.33;5.00;;;;;;;6.65;66.12;100711.48;1724536;83;21224;-45
2021/01/26 03:56:08;;;;;;;8.20;5.20;;;;;;;6.67;66.11;100701.99;1791226;79;21298;-45
2021/01/26 03:59:17;;;;;;;8.75;5.15;;;;;;;6.73;66.04;100700.66;1721329;82;21160;-45
2021/01/26 04:02:15;;;;;;;9.98;5.35;;;;;;;6.75;66.02;100704.09;1716532;82;21613;-46
2021/01/26 04:04:58;;;;;;;8.30;5.15;;;;;;;6.77;66.00;100715.28;1708225;82;21187;-45
2021/01/26 04:07:30;;;;;;;7.97;5.92;;;;;;;6.77;66.08;100724.33;1708169;83;21214;-46
2021/01/26 04:10:00;;;;;;;;;;;;;;;6.79;66.04;100720.00;1716720;83;21215;-46
2021/01/26 04:12:31;;;;;;;7.17;4.67;;;;;;;6.83;65.98;100717.82;1690426;83;20134;-45
2021/01/26 04:15:05;;;;;;;10.20;5.65;;;;;;;6.85;65.87;100718.66;1714535;82;21136;-46
2021/01/26 04:17:42;;;;;;;8.60;5.05;;;;;;;6.88;65.83;100716.94;1816194;77;23033;-45
2021/01/26 04:20:14;;;;;;;20.37;7.35;;;;;;;6.83;65.82;100729.03;1813880;78;21148;-45
2021/01/26 04:22:42;;;;;;;21.60;7.05;;;;;;;6.84;65.93;100737.66;1819936;78;21580;-45
2021/01/26 04:25:35;;;;;;;26.25;9.28;;;;;;;6.84;66.24;100737.66;1814168;78;21541;-46
2021/01/26 04:28:08;;;;;;;23.18;7.45;;;;;;;6.82;66.46;100750.58;1819528;78;21301;-46
2021/01/26 04:30:36;;;;;;;16.65;6.35;;;;;;;6.84;66.64;100753.17;1794807;80;21664;-47
2021/01/26 04:33:10;;;;;;;16.23;6.08;;;;;;;6.86;66.90;100748.85;1750510;81;21152;-47
2021/01/26 04:35:39;;;;;;;12.47;5.80;;;;;;;6.87;67.04;100747.97;1754547;81;21149;-47
2021/01/26 04:38:07;;;;;;;18.77;6.35;;;;;;;6.89;67.23;100756.57;1757612;81;21605;-46
2021/01/26 04:40:35;;;;;;;19.07;6.50;;;;;;;6.89;67.30;100761.74;1757263;81;21521;-47
2021/01/26 04:43:16;;;;;;;25.48;8.28;;;;;;;6.94;67.42;100760.87;1757301;81;21223;-46
2021/01/26 04:46:02;;;;;;;27.48;8.73;;;;;;;6.98;67.38;100766.87;1733287;81;21164;-46
2021/01/26 04:48:33;;;;;;;33.33;8.80;;;;;;;7.01;67.28;100766.83;1757583;81;21592;-47
2021/01/26 04:51:16;;;;;;;38.10;9.70;;;;;;;7.03;67.08;100759.48;1757455;81;21287;-47
2021/01/26 04:54:19;;;;;;;31.52;8.60;;;;;;;7.08;67.11;100756.45;1815205;77;23563;-46
2021/01/26 04:57:33;;;;;;;34.18;8.73;;;;;;;7.04;67.27;100762.52;1774434;80;21307;-45
2021/01/26 05:00:23;;;;;;;38.30;9.00;;;;;;;7.08;67.23;100759.46;1751961;81;21160;-46
2021/01/26 05:03:25;;;;;;;27.80;9.08;;;;;;;7.10;67.24;100765.48;1767251;81;21168;-46
2021/01/26 05:06:00;;;;;;;34.95;8.90;;;;;;;7.11;67.13;100773.69;1752267;81;21191;-46
2021/01/26 05:08:37;;;;;;;20.45;6.97;;;;;;;7.12;66.91;100770.20;1750894;81;21243;-46
2021/01/26 05:11:15;;;;;;;30.08;9.73;;;;;;;7.13;66.96;100768.06;1700724;84;21308;-46
2021/01/26 05:13:49;;;;;;;26.00;7.53;;;;;;;7.13;66.98;100771.48;1700711;84;21183;-46
2021/01/26 05:16:40;;;;;;;30.17;8.90;;;;;;;7.17;67.02;100774.93;1706967;84;21207;-46
2021/01/26 05:19:21;;;;;;;24.60;7.83;;;;;;;7.25;66.83;100771.84;1771500;79;23068;-45
2021/01/26 05:21:54;;;;;;;21.48;6.50;;;;;;;7.23;66.65;100773.59;1735148;82;21628;-45
2021/01/26 05:24:31;;;;;;;19.23;7.50;;;;;;;7.23;66.51;100771.00;1738057;82;21153;-46
2021/01/26 05:27:01;;;;;;;20.80;7.70;;;;;;;7.23;66.55;100765.36;1655609;86;21176;-45
2021/01/26 05:29:30;;;;;;;30.05;7.78;;;;;;;7.23;66.61;100769.25;1658795;86;21211;-46
2021/01/26 05:32:00;;;;;;;27.02;8.20;;;;;;;7.24;66.65;100764.94;1662242;86;21204;-45
2021/01/26 05:34:30;;;;;;;14.47;6.55;;;;;;;7.27;66.63;100764.92;1654903;86;21645;-45
2021/01/26 05:36:58;;;;;;;19.37;7.67;;;;;;;7.27;66.67;100767.52;1656254;86;21235;-45
2021/01/26 05:39:49;;;;;;;22.52;6.83;;;;;;;7.27;66.65;100764.47;1656214;86;21184;-45
2021/01/26 05:42:19;;;;;;;24.63;7.00;;;;;;;7.28;66.78;100765.33;1656364;86;21196;-45
2021/01/26 05:44:52;;;;;;;24.37;6.80;;;;;;;7.29;66.84;100767.06;1656431;86;21798;-46
2021/01/26 05:47:33;;;;;;;30.85;10.13;;;;;;;7.35;67.04;100757.95;1816394;77;23115;-45
2021/01/26 05:50:02;;;;;;;21.75;7.97;;;;;;;7.33;66.98;100763.58;1695821;82;21187;-45
2021/01/26 05:52:34;;;;;;;30.25;8.63;;;;;;;7.34;66.88;100773.05;1697604;82;21291;-46
2021/01/26 05:55:23;;;;;;;26.33;8.75;;;;;;;7.34;66.88;100775.63;1698584;82;21587;-45
2021/01/26 05:57:53;;;;;;;26.12;8.80;;;;;;;7.35;66.99;100779.95;1692433;82;21364;-46
2021/01/26 06:00:24;;;;;;;28.92;8.15;;;;;;;7.36;67.33;100783.81;1695628;82;21171;-46
2021/01/26 06:03:19;;;;;;;27.42;8.85;;;;;;;7.39;67.50;100792.00;1695085;82;21211;-46
2021/01/26 06:06:09;;;;;;;32.63;9.73;;;;;;;7.48;67.53;100786.72;1771456;79;23040;-46
2021/01/26 06:08:57;;;;;;;26.35;8.05;;;;;;;7.45;67.58;100797.13;1740658;82;21148;-46
2021/01/26 06:11:29;;;;;;;19.65;6.85;;;;;;;7.48;67.72;100807.44;1658331;86;21199;-46
2021/01/26 06:14:11;;;;;;;19.82;6.50;;;;;;;7.49;67.87;100799.23;1658228;86;21163;-46
2021/01/26 06:16:39;;;;;;;18.25;6.53;;;;;;;7.52;67.95;100800.09;1655615;86;21328;-46
2021/01/26 06:19:08;;;;;;;14.58;5.80;;;;;;;7.57;68.01;100804.78;1653491;85;21178;-46
2021/01/26 06:21:51;;;;;;;17.20;6.70;;;;;;;7.60;68.00;100797.43;1658137;85;21191;-46
2021/01/26 06:24:23;;;;;;;13.38;5.50;;;;;;;7.63;67.89;100796.95;1648358;86;21170;-46
2021/01/26 06:27:38;;;;;;;14.35;5.15;;;;;;;7.64;67.88;100794.80;1650475;86;21237;-46
2021/01/26 06:30:23;;;;;;;9.80;4.65;;;;;;;7.72;67.80;100803.36;1798779;78;22701;-47
2021/01/26 06:33:22;;;;;;;14.00;5.10;;;;;;;7.68;67.87;100812.03;1803621;78;21120;-46
2021/01/26 06:36:34;;;;;;;13.58;5.55;;;;;;;7.69;67.90;100800.78;1805403;78;21116;-46
2021/01/26 06:39:20;;;;;;;13.90;5.40;;;;;;;7.69;67.85;100810.27;1823379;78;21129;-46
2021/01/26 06:42:37;;;;;;;11.45;6.08;;;;;;;7.61;68.18;100802.59;1806774;78;21259;-46
2021/01/26 06:45:17;;;;;;;15.32;5.75;;;;;;;7.54;68.67;100798.78;1802861;78;21159;-46
2021/01/26 06:48:12;;;;;;;8.65;4.45;;;;;;;7.51;68.88;100799.66;1706589;83;21184;-47
2021/01/26 06:51:26;;;;;;;9.85;5.12;;;;;;;7.53;69.04;100808.70;1668686;85;21192;-47
2021/01/26 06:54:08;;;;;;;13.75;5.83;;;;;;;7.52;69.23;100800.09;1708579;83;21180;-47
2021/01/26 06:56:54;;;;;;;12.15;4.30;;;;;;;7.53;69.33;100795.33;1710967;84;21164;-47
2021/01/26 06:59:57;;;;;;;11.33;4.78;;;;;;;7.57;69.59;100793.13;1843652;77;23021;-46
2021/01/26 07:03:22;;;;;;;8.58;4.80;;;;;;;7.57;69.64;100789.67;1763466;80;21183;-46
2021/01/26 07:06:35;;;;;;;10.20;4.45;;;;;;;7.62;69.67;100794.39;1766346;81;21163;-47
2021/01/26 07:09:26;;;;;;;12.68;4.25;;;;;;;7.64;69.42;100790.92;1766122;81;21128;-47
2021/01/26 07:12:40;;;;;;;10.20;3.92;;;;;;;7.63;69.36;100792.20;1768152;81;21171;-47
2021/01/26 07:15:47;;;;;;;12.18;4.08;;;;;;;7.58;69.33;100793.56;1753383;81;21623;-46
2021/01/26 07:18:40;;;;;;;16.15;5.00;;;;;;;7.56;69.10;100799.20;1776206;80;21595;-47
2021/01/26 07:21:37;;;;;;;16.25;5.35;;;;;;;7.54;68.87;100798.35;1757315;81;21305;-47
2021/01/26 07:24:23;;;;;;;12.60;5.08;;;;;;;7.51;69.13;100790.59;1768791;80;21112;-47
2021/01/26 07:27:09;;;;;;;10.80;4.97;;;;;;;7.51;69.42;100788.01;1773081;80;21203;-47
2021/01/26 07:29:48;;;;;;;7.60;3.87;;;;;;;7.49;69.54;100792.34;1648486;87;21390;-47
2021/01/26 07:32:40;;;;;;;6.67;3.83;;;;;;;7.52;69.73;100796.64;1637613;87;21186;-47
2021/01/26 07:35:36;;;;;;;4.87;3.77;;;;;;;7.52;69.74;100802.69;1649567;87;21631;-47
2021/01/26 07:38:36;;;;;;;7.20;3.42;;;;;;;7.53;69.76;100806.98;1649414;87;21698;-47
2021/01/26 07:41:25;;;;;;;5.75;3.05;;;;;;;7.56;69.84;100808.26;1647739;87;21236;-47
2021/01/26 07:44:21;;;;;;;5.62;3.20;;;;;;;7.60;69.88;100809.95;1642990;87;21172;-48
2021/01/26 07:46:58;;;;;;;5.12;2.90;;;;;;;7.57;69.87;100800.90;1646773;87;21187;-47
2021/01/26 07:49:50;;;;;;;4.72;2.72;;;;;;;7.55;70.00;100800.05;1641076;87;21246;-47
2021/01/26 07:52:18;;;;;;;4.97;2.67;;;;;;;7.56;69.96;100803.08;1642867;87;21192;-46
2021/01/26 07:55:17;;;;;;;6.37;2.80;;;;;;;7.57;69.93;100807.38;1649077;87;21222;-50
2021/01/26 07:58:09;;;;;;;6.95;3.65;;;;;;;7.62;69.95;100799.14;1843000;77;23656;-46
2021/01/26 08:00:40;;;;;;;4.08;2.60;;;;;;;7.58;70.00;100794.86;1813780;78;21629;-46
2021/01/26 08:03:08;;;;;;;;;;;;;;;7.58;70.00;100793.56;1821399;77;21176;-46
2021/01/26 08:05:47;;;;;;;5.60;3.10;;;;;;;7.60;69.95;100787.94;1782256;78;20420;-47
2021/01/26 08:08:24;;;;;;;4.33;2.65;;;;;;;7.61;69.99;100784.46;1817419;78;21152;-47
2021/01/26 08:11:20;;;;;;;7.58;2.77;;;;;;;7.61;70.02;100786.19;1809908;78;21291;-47
2021/01/26 08:14:02;;;;;;;3.37;2.55;;;;;;;7.60;70.20;100779.30;1809350;78;21141;-46
2021/01/26 08:16:38;;;;;;;6.95;3.20;;;;;;;7.38;71.11;100769.55;1803067;77;21162;-47
2021/01/26 08:19:23;;;;;;;6.65;3.27;;;;;;;7.35;71.05;100757.95;1822103;77;21143;-46
2021/01/26 08:21:51;;;;;;;4.85;2.85;;;;;;;7.34;71.19;100771.75;1812333;77;21126;-47
2021/01/26 08:24:27;;;;;;;5.85;3.58;;;;;;;7.34;71.46;100763.56;1818278;77;21132;-47
2021/01/26 08:27:18;;;;;;;9.40;5.35;;;;;;;7.32;71.56;100768.31;1812141;77;21137;-46
2021/01/26 08:29:51;;;;;;;7.12;5.22;;;;;;;7.28;71.66;100765.33;1817462;77;21133;-47
2021/01/26 08:32:31;;;;;;;10.43;6.95;;;;;;;7.24;71.45;100753.29;1759439;80;21108;-47
2021/01/26 08:35:15;;;;;;;9.00;5.33;;;;;;;7.16;71.64;100748.61;1757195;79;21155;-47
2021/01/26 08:37:47;;;;;;;18.20;8.45;;;;;;;7.23;71.57;100743.36;1762158;80;21275;-46
2021/01/26 08:40:21;;;;;;;7.10;4.28;;;;;;;7.29;71.36;100742.02;1755773;81;21167;-47
2021/01/26 08:42:53;;;;;;;9.08;5.67;;;;;;;7.27;71.51;100737.75;1747744;81;21298;-46
2021/01/26 08:45:33;;;;;;;7.40;4.00;;;;;;;7.29;71.60;100734.71;1753190;80;21604;-47
2021/01/26 08:48:03;;;;;;;9.08;3.72;;;;;;;7.09;72.32;100734.03;1784014;80;21263;-47
2021/01/26 08:50:45;;;;;;;6.87;3.40;;;;;;;7.07;72.82;100733.15;1745368;81;21606;-47
2021/01/26 08:53:29;;;;;;;7.70;3.60;;;;;;;7.10;72.76;100738.31;1707085;82;21211;-46
2021/01/26 08:56:10;;;;;;;8.08;4.30;;;;;;;7.12;72.80;100728.81;1703155;83;21271;-46
2021/01/26 08:58:49;;;;;;;9.23;4.12;;;;;;;7.21;72.65;100730.05;1801166;79;23066;-47
2021/01/26 09:01:31;;;;;;;9.60;5.90;;;;;;;7.17;72.61;100734.82;1774561;80;22315;-46
2021/01/26 09:04:19;;;;;;;11.60;6.97;;;;;;;7.16;72.46;100730.50;1779231;80;21183;-47
2021/01/26 09:06:48;;;;;;;9.05;5.15;;;;;;;7.17;72.01;100734.82;1737659;81;21746;-47
2021/01/26 09:09:25;;;;;;;9.45;4.62;;;;;;;7.15;71.75;100733.98;1717906;82;21745;-46
2021/01/26 09:11:56;;;;;;;4.05;2.95;;;;;;;7.11;71.67;100742.63;1717108;83;21795;-47
2021/01/26 09:14:46;;;;;;;8.63;4.78;;;;;;;7.05;71.45;100742.66;1742571;81;21144;-47
2021/01/26 09:17:23;;;;;;;8.10;4.95;;;;;;;6.91;71.82;100739.31;1719116;83;21313;-48
2021/01/26 09:20:17;;;;;;;11.80;5.20;;;;;;;6.77;72.68;100735.97;1721158;82;21179;-47
2021/01/26 09:22:45;;;;;;;7.67;5.10;;;;;;;6.78;72.92;100735.11;1712559;83;21138;-47
2021/01/26 09:25:22;;;;;;;11.38;6.60;;;;;;;7.10;71.76;100721.50;1694446;83;21170;-47
2021/01/26 09:28:06;;;;;;;10.98;6.00;;;;;;;6.86;72.39;100712.64;1735317;82;21140;-47
2021/01/26 09:30:37;;;;;;;12.18;7.15;;;;;;;6.78;73.10;100709.26;1732287;82;21593;-47
2021/01/26 09:33:14;;;;;;;7.10;4.35;;;;;;;6.80;73.41;100710.94;1739743;81;21147;-47
2021/01/26 09:36:08;;;;;;;9.15;5.00;;;;;;;6.87;73.44;100701.41;1745315;81;21122;-47
2021/01/26 09:38:41;;;;;;;8.20;4.33;;;;;;;6.97;72.95;100703.92;1744816;81;21710;-46
2021/01/26 09:41:27;;;;;;;4.97;3.83;;;;;;;7.01;72.44;100700.86;1671094;85;21162;-47
2021/01/26 09:44:09;;;;;;;12.73;7.85;;;;;;;7.00;71.97;100695.28;1646625;85;21679;-47
2021/01/26 09:46:48;;;;;;;6.60;5.00;;;;;;;6.97;71.94;100687.53;1623575;88;21259;-47
2021/01/26 09:49:27;;;;;;;5.90;4.22;;;;;;;6.96;71.95;100677.64;1809967;79;22988;-47
2021/01/26 09:52:08;;;;;;;8.70;4.50;;;;;;;6.88;72.06;100675.98;1740344;80;21235;-47
2021/01/26 09:54:41;;;;;;;15.55;10.03;;;;;;;6.86;72.08;100667.37;1768666;80;21167;-46
2021/01/26 09:57:15;;;;;;;26.70;18.42;;;;;;;6.87;72.28;100670.38;1777103;80;21186;-46
2021/01/26 09:59:46;;;;;;;40.55;25.90;;;;;;;6.90;72.57;100660.02;1776658;80;21113;-47
2021/01/26 10:02:15;;;;;;;33.10;20.85;;;;;;;6.90;72.94;100654.84;1781331;80;21289;-47
2021/01/26 10:04:44;;;;;;;10.85;7.45;;;;;;;6.98;73.15;100662.09;1780528;80;21136;-47
2021/01/26 10:07:14;;;;;;;7.53;4.40;;;;;;;7.09;73.46;100661.58;1735141;81;21164;-47
2021/01/26 10:09:43;;;;;;;6.17;4.30;;;;;;;7.22;73.37;100659.28;1682012;84;21292;-46
2021/01/26 10:12:27;;;;;;;5.92;3.72;;;;;;;7.28;72.53;100656.20;1726846;82;21162;-47
2021/01/26 10:15:28;;;;;;;5.33;3.65;;;;;;;7.35;71.87;100657.00;1659856;85;21208;-46
2021/01/26 10:18:01;;;;;;;;;;;;;;;7.33;71.29;100654.87;1669005;85;21180;-47
2021/01/26 10:20:37;;;;;;;7.00;5.65;;;;;;;7.19;70.85;100651.56;1667187;85;20205;-46
2021/01/26 10:23:16;;;;;;;6.25;4.72;;;;;;;7.03;71.31;100656.43;1666009;85;21199;-46
2021/01/26 10:25:44;;;;;;;10.82;7.15;;;;;;;6.95;71.51;100658.23;1659767;85;21160;-46
2021/01/26 10:28:25;;;;;;;5.87;5.15;;;;;;;6.84;71.77;100657.48;1653778;85;21264;-46
2021/01/26 10:30:54;;;;;;;5.00;4.42;;;;;;;6.77;71.98;100658.39;1656820;85;21238;-46
2021/01/26 10:33:40;;;;;;;6.95;5.08;;;;;;;6.72;72.03;100655.83;1653249;85;21813;-47
2021/01/26 10:36:26;;;;;;;7.97;5.70;;;;;;;6.69;72.18;100657.59;1662149;85;22321;-47
2021/01/26 10:39:26;;;;;;;11.03;7.92;;;;;;;6.61;72.33;100652.48;1665556;85;21234;-47
2021/01/26 10:42:19;;;;;;;11.57;8.55;;;;;;;6.62;72.68;100646.86;1831342;77;22982;-47
2021/01/26 10:44:56;;;;;;;13.90;9.48;;;;;;;6.57;72.85;100643.05;1808419;78;21169;-46
2021/01/26 10:47:36;;;;;;;15.80;10.63;;;;;;;6.57;73.12;100637.41;1810459;78;21640;-47
2021/01/26 10:50:19;;;;;;;23.32;12.50;;;;;;;6.59;73.04;100633.09;1819641;77;21145;-46
2021/01/26 10:52:49;;;;;;;14.75;11.30;;;;;;;6.60;73.15;100622.32;1687402;84;21245;-46
2021/01/26 10:55:20;;;;;;;14.73;9.58;;;;;;;6.63;73.37;100629.20;1683814;84;21166;-46
2021/01/26 10:57:49;;;;;;;19.85;12.85;;;;;;;6.66;73.17;100631.78;1688913;83;21850;-46
2021/01/26 11:00:26;;;;;;;16.62;11.28;;;;;;;6.68;72.96;100633.91;1695890;84;21107;-47
2021/01/26 11:02:54;;;;;;;13.83;10.00;;;;;;;6.68;73.23;100630.03;1697578;83;21574;-46
2021/01/26 11:05:24;;;;;;;18.95;11.55;;;;;;;6.72;73.22;100625.27;1689326;83;21211;-48
2021/01/26 11:07:53;;;;;;;18.50;11.73;;;;;;;6.77;72.88;100633.82;1694197;83;21241;-46
2021/01/26 11:10:23;;;;;;;22.48;14.80;;;;;;;6.78;72.65;100650.61;1686006;84;21328;-45
2021/01/26 11:12:52;;;;;;;22.02;13.70;;;;;;;6.80;72.13;100654.50;1687181;83;21162;-46
2021/01/26 11:15:57;;;;;;;15.60;11.85;;;;;;;6.82;71.89;100664.40;1688715;83;21158;-46
2021/01/26 11:18:49;;;;;;;17.00;12.07;;;;;;;6.84;71.86;100669.95;1694462;83;21179;-44
2021/01/26 11:21:18;;;;;;;14.58;11.48;;;;;;;6.84;71.74;100670.41;1687065;84;21226;-43
2021/01/26 11:23:46;;;;;;;14.43;11.40;;;;;;;6.83;71.79;100679.03;1693599;83;21162;-44
2021/01/26 11:26:17;;;;;;;11.22;9.75;;;;;;;6.82;71.31;100672.16;1690991;83;21158;-47
2021/01/26 11:28:47;;;;;;;10.10;8.45;;;;;;;6.78;70.45;100664.83;1700660;83;21131;-44
2021/01/26 11:31:15;;;;;;;10.32;7.45;;;;;;;6.66;70.31;100670.56;1794586;77;21165;-44
2021/01/26 11:33:44;;;;;;;8.38;6.80;;;;;;;6.63;69.86;100678.32;1812393;78;21128;-46
2021/01/26 11:36:13;;;;;;;9.35;7.15;;;;;;;6.22;70.14;100672.95;1810694;77;21173;-47
2021/01/26 11:38:42;;;;;;;9.50;6.42;;;;;;;5.99;69.89;100678.69;1815376;77;21295;-44
2021/01/26 11:41:11;;;;;;;9.25;7.42;;;;;;;5.86;69.92;100687.34;1792446;78;21692;-44
2021/01/26 11:43:40;;;;;;;9.45;7.67;;;;;;;5.79;70.47;100677.86;1789381;80;21554;-46
2021/01/26 11:46:09;;;;;;;11.88;8.50;;;;;;;5.76;70.67;100679.17;1778266;80;21146;-44
2021/01/26 11:48:38;;;;;;;9.98;8.23;;;;;;;5.76;70.97;100678.75;1776510;80;21126;-46
2021/01/26 11:51:08;;;;;;;10.53;9.18;;;;;;;5.77;71.33;100687.33;1772931;80;21095;-44
2021/01/26 11:53:36;;;;;;;9.85;8.48;;;;;;;5.78;71.47;100694.23;1773949;80;21182;-43
2021/01/26 11:56:06;;;;;;;10.70;8.53;;;;;;;5.83;71.72;100696.38;1774003;80;21316;-47
2021/01/26 12:01:11;;;;;;;6.92;6.22;;;;;;;5.97;71.46;100690.75;1783643;79;28073;-44
2021/01/26 12:03:39;;;;;;;9.00;6.08;;;;;;;5.96;70.87;100684.28;1774384;80;21124;-44
2021/01/26 12:06:09;;;;;;;6.33;5.72;;;;;;;6.00;70.57;100707.94;1774462;80;21147;-46
2021/01/26 12:08:38;;;;;;;6.40;4.72;;;;;;;6.01;70.67;100710.96;1765146;80;21206;-52
2021/01/26 12:11:07;;;;;;;5.00;4.50;;;;;;;6.03;70.80;100711.81;1779277;80;21204;-46
2021/01/26 12:13:36;;;;;;;5.22;4.72;;;;;;;6.05;70.92;100703.20;1778420;80;21156;-44
2021/01/26 12:16:05;;;;;;;4.90;4.20;;;;;;;6.07;70.97;100704.48;1776194;80;21151;-46
2021/01/26 12:18:35;;;;;;;5.17;4.10;;;;;;;6.09;71.02;100707.48;1770335;80;21164;-49
2021/01/26 12:21:04;;;;;;;6.67;5.85;;;;;;;6.10;71.05;100719.98;1774771;80;21281;-48
2021/01/26 12:23:32;;;;;;;12.07;10.38;;;;;;;6.10;71.04;100722.11;1770939;80;21317;-47
2021/01/26 12:26:03;;;;;;;9.38;7.50;;;;;;;6.11;71.19;100729.01;1772037;80;21172;-46